createdAt,value
2023-03-07T00:01:29.674Z,41.33
2023-03-07T00:03:58.691Z,57.50
2023-03-07T00:06:27.685Z,54.77
2023-03-07T00:08:59.474Z,48.83
2023-03-07T00:11:28.574Z,54.80
2023-03-07T00:13:57.758Z,43.10
2023-03-07T00:16:26.685Z,42.10
2023-03-07T00:18:56.748Z,41.70
2023-03-07T00:21:27.553Z,39.97
2023-03-07T00:23:57.548Z,40.33
2023-03-07T00:26:27.302Z,38.07
2023-03-07T00:28:56.463Z,42.40
2023-03-07T00:31:25.517Z,37.27
2023-03-07T00:33:54.088Z,39.87
2023-03-07T00:36:24.194Z,38.23
2023-03-07T00:38:53.096Z,40.27
2023-03-07T00:41:25.027Z,36.83
2023-03-07T00:43:54.793Z,33.97
2023-03-07T00:46:25.640Z,33.00
2023-03-07T00:48:54.530Z,33.43
2023-03-07T00:51:24.779Z,31.70
2023-03-07T00:53:53.758Z,33.80
2023-03-07T00:56:25.098Z,35.37
2023-03-07T00:58:54.415Z,37.30
2023-03-07T01:01:24.641Z,35.13
2023-03-07T01:03:54.540Z,33.50
2023-03-07T01:06:24.972Z,31.57
2023-03-07T01:08:54.115Z,26.97
2023-03-07T01:11:24.157Z,30.73
2023-03-07T01:13:52.748Z,28.93
2023-03-07T01:16:23.428Z,26.83
2023-03-07T01:18:53.310Z,27.67
2023-03-07T01:21:28.514Z,25.47
2023-03-07T01:23:57.403Z,24.10
2023-03-07T01:26:30.290Z,26.03
2023-03-07T01:29:00.562Z,27.50
2023-03-07T01:31:30.547Z,28.40
2023-03-07T01:33:59.660Z,27.00
2023-03-07T01:36:30.721Z,26.60
2023-03-07T01:39:02.884Z,26.83
2023-03-07T01:41:33.442Z,26.47
2023-03-07T01:45:09.366Z,26.67
2023-03-07T01:47:37.930Z,28.33
2023-03-07T01:50:10.480Z,25.33
2023-03-07T01:52:43.226Z,24.73
2023-03-07T01:55:16.783Z,28.03
2023-03-07T01:57:53.802Z,29.90
2023-03-07T02:00:28.880Z,27.57
2023-03-07T02:03:04.410Z,24.67
2023-03-07T02:05:38.251Z,29.23
2023-03-07T02:08:09.848Z,29.43
2023-03-07T02:10:39.277Z,29.67
2023-03-07T02:13:09.696Z,28.63
2023-03-07T02:15:38.889Z,27.63
2023-03-07T02:18:08.034Z,24.60
2023-03-07T02:20:44.922Z,27.00
2023-03-07T02:23:21.645Z,29.85
2023-03-07T02:25:58.371Z,41.07
2023-03-07T02:28:29.774Z,37.73
2023-03-07T02:31:00.475Z,32.03
2023-03-07T02:33:29.242Z,31.30
2023-03-07T02:36:01.345Z,30.87
2023-03-07T02:38:31.197Z,28.90
2023-03-07T02:40:59.917Z,27.20
2023-03-07T02:43:29.953Z,30.13
2023-03-07T02:45:58.533Z,27.10
2023-03-07T02:48:27.097Z,28.17
2023-03-07T02:50:55.583Z,25.83
2023-03-07T02:53:24.350Z,24.33
2023-03-07T02:55:52.891Z,25.17
2023-03-07T02:58:21.624Z,25.33
2023-03-07T03:00:51.564Z,25.27
2023-03-07T03:03:20.540Z,26.73
2023-03-07T03:05:49.635Z,25.60
2023-03-07T03:08:18.379Z,26.40
2023-03-07T03:10:47.072Z,27.03
2023-03-07T03:13:15.551Z,26.57
2023-03-07T03:15:44.095Z,28.33
2023-03-07T03:18:14.464Z,24.93
2023-03-07T03:20:43.605Z,26.90
2023-03-07T03:23:12.094Z,29.63
2023-03-07T03:25:40.624Z,30.43
2023-03-07T03:28:09.242Z,28.50
2023-03-07T03:30:37.736Z,30.90
2023-03-07T03:33:06.426Z,27.33
2023-03-07T03:35:36.416Z,28.37
2023-03-07T03:38:05.773Z,28.87
2023-03-07T03:40:34.263Z,26.20
2023-03-07T03:43:02.882Z,30.17
2023-03-07T03:45:31.434Z,30.57
2023-03-07T03:48:00.104Z,38.13
2023-03-07T03:50:28.730Z,37.13
2023-03-07T03:52:58.724Z,35.90
2023-03-07T03:55:27.254Z,31.23
2023-03-07T03:57:55.783Z,32.33
2023-03-07T04:00:25.255Z,29.73
2023-03-07T04:02:54.050Z,26.73
2023-03-07T04:05:22.759Z,25.87
2023-03-07T04:07:52.383Z,29.23
2023-03-07T04:10:22.694Z,27.10
2023-03-07T04:12:51.295Z,27.33
2023-03-07T04:15:19.884Z,29.33
2023-03-07T04:17:48.398Z,31.33
2023-03-07T04:20:17.995Z,31.27
2023-03-07T04:22:46.719Z,28.03
2023-03-07T04:25:15.793Z,29.20
2023-03-07T04:27:45.848Z,29.13
2023-03-07T04:30:15.402Z,28.43
2023-03-07T04:32:44.013Z,28.00
2023-03-07T04:35:12.637Z,27.30
2023-03-07T04:37:41.292Z,23.90
2023-03-07T04:40:11.276Z,26.33
2023-03-07T04:42:39.860Z,27.00
2023-03-07T04:45:12.002Z,24.80
2023-03-07T04:47:40.572Z,25.00
2023-03-07T04:50:09.941Z,25.37
2023-03-07T04:52:38.727Z,25.40
2023-03-07T04:55:08.395Z,25.80
2023-03-07T04:57:36.924Z,25.23
2023-03-07T05:00:09.465Z,25.80
2023-03-07T05:02:39.710Z,24.93
2023-03-07T05:05:09.198Z,26.17
2023-03-07T05:07:38.157Z,24.67
2023-03-07T05:10:07.608Z,25.53
2023-03-07T05:12:36.277Z,24.23
2023-03-07T05:15:05.063Z,24.60
2023-03-07T05:17:33.675Z,23.80
2023-03-07T05:20:04.373Z,42.03
2023-03-07T05:22:32.910Z,32.53
2023-03-07T05:25:01.494Z,35.53
2023-03-07T05:27:30.069Z,36.40
2023-03-07T05:29:58.579Z,60.00
2023-03-07T05:32:27.407Z,58.60
2023-03-07T05:34:55.999Z,56.20
2023-03-07T05:37:26.411Z,52.00
2023-03-07T05:39:55.046Z,47.37
2023-03-07T05:42:23.699Z,43.03
2023-03-07T05:44:52.266Z,60.27
2023-03-07T05:47:20.829Z,54.57
2023-03-07T05:49:49.375Z,58.40
2023-03-07T05:52:17.985Z,52.50
2023-03-07T05:54:49.538Z,48.95
2023-03-07T05:57:20.005Z,50.90
2023-03-07T05:59:48.544Z,42.07
2023-03-07T06:02:17.176Z,45.73
2023-03-07T06:04:47.329Z,48.43
2023-03-07T06:07:15.886Z,47.10
2023-03-07T06:09:44.467Z,43.63
2023-03-07T06:12:14.557Z,43.63
2023-03-07T06:14:43.191Z,42.27
2023-03-07T06:17:11.748Z,39.57
2023-03-07T06:19:40.370Z,40.07
2023-03-07T06:22:09.273Z,42.37
2023-03-07T06:24:37.891Z,48.10
2023-03-07T06:27:06.693Z,48.23
2023-03-07T06:29:37.981Z,54.77
2023-03-07T06:32:07.168Z,42.50
2023-03-07T06:34:35.818Z,37.13
2023-03-07T06:37:04.361Z,38.47
2023-03-07T06:39:32.951Z,48.70
2023-03-07T06:42:01.642Z,33.30
2023-03-07T06:44:30.375Z,31.23
2023-03-07T06:47:00.370Z,36.17
2023-03-07T06:49:28.968Z,34.23
2023-03-07T06:51:57.648Z,35.00
2023-03-07T06:54:26.374Z,34.83
2023-03-07T06:56:55.308Z,36.60
2023-03-07T06:59:24.062Z,36.40
2023-03-07T07:01:52.751Z,42.53
2023-03-07T07:04:22.755Z,35.80
2023-03-07T07:06:51.365Z,38.67
2023-03-07T07:09:19.976Z,32.63
2023-03-07T07:11:48.787Z,30.87
2023-03-07T07:14:17.517Z,30.50
2023-03-07T07:16:46.145Z,33.00
2023-03-07T07:19:14.736Z,32.73
2023-03-07T07:21:44.888Z,37.10
2023-03-07T07:24:13.815Z,39.90
2023-03-07T07:26:42.410Z,39.90
2023-03-07T07:29:11.315Z,40.87
2023-03-07T07:31:39.979Z,39.00
2023-03-07T07:34:08.697Z,38.77
2023-03-07T07:36:37.216Z,45.00
2023-03-07T07:39:10.849Z,44.20
2023-03-07T07:41:39.969Z,48.80
2023-03-07T07:44:08.481Z,42.17
2023-03-07T07:46:37.316Z,40.90
2023-03-07T07:49:06.078Z,34.40
2023-03-07T07:51:35.123Z,37.03
2023-03-07T07:54:03.715Z,35.67
2023-03-07T07:56:33.768Z,37.33
2023-03-07T07:59:02.292Z,37.60
2023-03-07T08:01:30.798Z,36.63
2023-03-07T08:03:59.390Z,35.87
2023-03-07T08:06:29.576Z,38.33
2023-03-07T08:09:00.283Z,35.57
2023-03-07T08:11:29.236Z,33.30
2023-03-07T08:13:59.286Z,38.63
2023-03-07T08:16:28.023Z,39.33
2023-03-07T08:18:58.409Z,44.43
2023-03-07T08:21:27.396Z,39.33
2023-03-07T08:23:56.462Z,41.77
2023-03-07T08:26:25.737Z,40.20
2023-03-07T08:28:54.316Z,37.90
2023-03-07T08:31:25.812Z,35.23
2023-03-07T08:33:54.946Z,42.57
2023-03-07T08:36:23.699Z,39.10
2023-03-07T08:38:53.053Z,38.93
2023-03-07T08:41:23.747Z,39.27
2023-03-07T08:43:53.165Z,40.27
2023-03-07T08:46:23.788Z,40.47
2023-03-07T08:48:52.481Z,54.77
2023-03-07T08:51:21.116Z,37.07
2023-03-07T08:53:49.813Z,40.67
2023-03-07T08:56:19.713Z,37.80
2023-03-07T08:58:48.520Z,35.73
2023-03-07T09:01:17.193Z,33.00
2023-03-07T09:03:47.316Z,32.27
2023-03-07T09:06:25.220Z,31.47
2023-03-07T09:08:53.928Z,29.03
2023-03-07T09:11:23.202Z,30.53
2023-03-07T09:13:53.254Z,31.37
2023-03-07T09:16:22.628Z,31.10
2023-03-07T09:18:52.743Z,28.83
2023-03-07T09:24:04.379Z,32.87
2023-03-07T09:26:33.376Z,32.90
2023-03-07T09:29:02.738Z,36.70
2023-03-07T09:31:31.640Z,45.97
2023-03-07T09:34:01.889Z,46.33
2023-03-07T09:36:30.475Z,29.27
2023-03-07T09:38:59.088Z,30.80
2023-03-07T09:41:44.077Z,31.00
2023-03-07T09:44:25.061Z,52.67
2023-03-07T09:47:11.180Z,51.87
2023-03-07T09:49:47.896Z,42.67
2023-03-07T09:52:19.627Z,45.17
2023-03-07T09:54:54.949Z,42.83
2023-03-07T09:57:27.726Z,50.37
2023-03-07T10:00:00.573Z,52.60
2023-03-07T10:02:34.400Z,48.40
2023-03-07T10:05:13.200Z,46.23
2023-03-07T10:07:41.930Z,45.47
2023-03-07T10:10:15.893Z,51.97
2023-03-07T10:13:15.801Z,59.60
2023-03-07T10:15:49.423Z,57.20
2023-03-07T10:18:28.884Z,64.10
2023-03-07T10:21:06.218Z,52.13
2023-03-07T10:23:59.493Z,63.53
2023-03-07T10:26:34.260Z,41.73
2023-03-07T10:29:10.895Z,52.13
2023-03-07T10:31:42.641Z,58.83
2023-03-07T10:34:26.448Z,58.73
2023-03-07T10:37:08.848Z,62.33
2023-03-07T10:39:43.744Z,62.13
2023-03-07T10:42:14.159Z,57.83
2023-03-07T10:44:55.927Z,62.30
2023-03-07T10:47:25.964Z,87.60
2023-03-07T10:49:58.134Z,77.03
2023-03-07T10:52:36.828Z,53.50
2023-03-07T10:55:39.107Z,88.40
2023-03-07T10:58:30.244Z,87.03
2023-03-07T11:01:13.374Z,88.37
2023-03-07T11:03:53.470Z,77.33
2023-03-07T11:06:36.166Z,74.90
2023-03-07T11:09:18.651Z,71.07
2023-03-07T11:11:52.991Z,82.03
2023-03-07T11:14:23.121Z,61.90
2023-03-07T11:16:56.035Z,53.27
2023-03-07T11:19:36.891Z,43.77
2023-03-07T11:22:17.572Z,31.00
2023-03-07T11:25:01.626Z,33.50
2023-03-07T11:27:39.797Z,34.73
2023-03-07T11:30:28.534Z,34.80
2023-03-07T11:33:11.980Z,41.10
2023-03-07T11:36:00.063Z,52.20
2023-03-07T11:38:45.192Z,51.03
2023-03-07T11:41:21.047Z,61.73
2023-03-07T11:44:02.565Z,67.13
2023-03-07T11:46:43.081Z,71.17
2023-03-07T11:49:31.034Z,73.63
2023-03-07T11:52:12.836Z,74.90
2023-03-07T11:54:50.391Z,88.80
2023-03-07T11:57:42.127Z,72.57
2023-03-07T12:00:33.871Z,87.67
2023-03-07T12:03:16.769Z,86.27
2023-03-07T12:05:58.417Z,61.57
2023-03-07T12:08:46.304Z,59.77
2023-03-07T12:11:29.660Z,48.23
2023-03-07T12:14:12.180Z,35.97
2023-03-07T12:16:50.631Z,40.97
2023-03-07T12:19:49.855Z,40.03
2023-03-07T12:22:29.257Z,57.23
2023-03-07T12:25:21.012Z,33.33
2023-03-07T12:27:54.250Z,37.60
2023-03-07T12:30:28.408Z,35.70
2023-03-07T12:32:57.553Z,41.63
2023-03-07T12:35:29.652Z,37.33
2023-03-07T12:38:04.083Z,35.83
2023-03-07T12:40:42.084Z,34.47
2023-03-07T12:43:19.836Z,34.67
2023-03-07T12:45:55.567Z,31.83
2023-03-07T12:48:42.355Z,30.57
2023-03-07T12:51:19.351Z,30.40
2023-03-07T12:53:51.183Z,32.57
2023-03-07T12:56:23.684Z,36.47
2023-03-07T12:58:57.280Z,33.80
2023-03-07T13:01:33.031Z,32.27
2023-03-07T13:04:09.432Z,28.83
2023-03-07T13:06:40.115Z,25.30
2023-03-07T13:09:12.475Z,26.48
2023-03-07T13:12:21.310Z,26.57
2023-03-07T13:14:51.726Z,26.67
2023-03-07T13:17:54.133Z,24.50
2023-03-07T13:20:46.798Z,24.90
2023-03-07T13:23:28.526Z,29.20
2023-03-07T13:26:10.934Z,27.63
2023-03-07T13:28:51.850Z,26.83
2023-03-07T13:31:42.979Z,30.37
2023-03-07T13:34:51.881Z,28.97
2023-03-07T13:37:58.329Z,23.83
2023-03-07T13:40:56.697Z,25.70
2023-03-07T13:44:00.197Z,25.80
2023-03-07T13:47:03.061Z,25.43
2023-03-07T13:49:45.784Z,26.33
2023-03-07T13:52:45.545Z,26.80
2023-03-07T13:55:31.649Z,27.13
2023-03-07T13:58:07.321Z,27.13
2023-03-07T14:00:43.271Z,26.30
2023-03-07T14:03:28.370Z,26.27
2023-03-07T14:06:01.897Z,28.80
2023-03-07T14:08:35.099Z,27.77
2023-03-07T14:11:07.090Z,24.40
2023-03-07T14:14:15.840Z,27.37
2023-03-07T14:17:04.506Z,43.57
2023-03-07T14:19:49.500Z,36.13
2023-03-07T14:22:28.931Z,33.53
2023-03-07T14:25:19.473Z,25.33
2023-03-07T14:27:59.116Z,28.33
2023-03-07T14:30:31.787Z,29.77
2023-03-07T14:33:01.808Z,26.40
2023-03-07T14:35:42.220Z,25.27
2023-03-07T14:38:18.895Z,31.03
2023-03-07T14:41:03.064Z,24.27
2023-03-07T14:43:45.870Z,28.37
2023-03-07T14:46:24.168Z,29.50
2023-03-07T14:49:04.001Z,28.37
2023-03-07T14:51:33.885Z,25.87
2023-03-07T14:54:09.163Z,25.60
2023-03-07T14:56:40.110Z,28.80
2023-03-07T14:59:22.555Z,27.90
2023-03-07T15:01:56.734Z,37.40
2023-03-07T15:04:28.343Z,25.67
2023-03-07T15:06:59.148Z,26.97
2023-03-07T15:09:28.246Z,26.57
2023-03-07T15:12:02.888Z,25.93
2023-03-07T15:14:44.584Z,27.30
2023-03-07T15:17:18.506Z,25.03
2023-03-07T15:19:50.685Z,29.50
2023-03-07T15:22:25.492Z,24.73
2023-03-07T15:24:54.732Z,25.67
2023-03-07T15:27:26.949Z,23.50
2023-03-07T15:29:57.969Z,26.47
2023-03-07T15:32:36.410Z,24.90
2023-03-07T15:35:14.309Z,25.17
2023-03-07T15:37:55.252Z,33.80
2023-03-07T15:40:27.923Z,36.70
2023-03-07T15:42:59.143Z,28.17
2023-03-07T15:45:36.723Z,29.63
2023-03-07T15:48:12.604Z,24.03
2023-03-07T15:50:41.250Z,34.80
2023-03-07T15:53:20.780Z,27.43
2023-03-07T15:55:57.313Z,60.93
2023-03-07T15:58:27.326Z,38.90
2023-03-07T16:01:09.408Z,34.27
2023-03-07T16:03:38.239Z,67.17
2023-03-07T16:06:07.814Z,40.67
2023-03-07T16:08:40.996Z,42.63
2023-03-07T16:11:13.589Z,44.07
2023-03-07T16:13:44.514Z,40.40
2023-03-07T16:16:22.596Z,46.43
2023-03-07T16:18:53.421Z,50.87
2023-03-07T16:21:26.128Z,41.60
2023-03-07T16:23:54.961Z,50.60
2023-03-07T16:26:26.046Z,35.73
2023-03-07T16:28:57.589Z,37.30
2023-03-07T16:31:27.847Z,41.23
2023-03-07T16:34:01.645Z,32.97
2023-03-07T16:36:30.474Z,42.13
2023-03-07T16:38:59.156Z,36.37
2023-03-07T16:41:28.911Z,32.20
2023-03-07T16:44:00.377Z,40.40
2023-03-07T16:46:33.298Z,48.57
2023-03-07T16:49:01.989Z,38.67
2023-03-07T16:51:31.344Z,37.13
2023-03-07T16:54:03.075Z,45.27
2023-03-07T16:56:37.664Z,51.37
2023-03-07T16:59:09.004Z,43.33
2023-03-07T17:01:39.404Z,40.47
2023-03-07T17:04:07.935Z,52.80
2023-03-07T17:06:39.399Z,41.30
2023-03-07T17:09:09.733Z,41.53
2023-03-07T17:11:42.560Z,37.77
2023-03-07T17:14:13.279Z,39.07
2023-03-07T17:16:47.191Z,39.93
2023-03-07T17:19:26.767Z,31.70
2023-03-07T17:21:55.820Z,43.50
2023-03-07T17:24:24.479Z,34.57
2023-03-07T17:26:54.099Z,30.10
2023-03-07T17:29:30.771Z,35.53
2023-03-07T17:32:02.900Z,41.87
2023-03-07T17:34:34.015Z,39.47
2023-03-07T17:37:03.092Z,41.03
2023-03-07T17:39:34.468Z,39.03
2023-03-07T17:42:06.054Z,50.10
2023-03-07T17:44:34.978Z,44.13
2023-03-07T17:47:05.374Z,58.10
2023-03-07T17:49:35.131Z,49.93
2023-03-07T17:52:04.260Z,58.80
2023-03-07T17:54:33.423Z,60.03
2023-03-07T17:57:03.062Z,53.73
2023-03-07T17:59:38.191Z,66.70
2023-03-07T18:02:11.506Z,70.87
2023-03-07T18:04:44.062Z,63.13
2023-03-07T18:07:12.793Z,76.23
2023-03-07T18:09:41.381Z,53.67
2023-03-07T18:12:10.776Z,64.77
2023-03-07T18:14:39.294Z,61.17
2023-03-07T18:17:09.440Z,65.83
2023-03-07T18:19:41.531Z,67.00
2023-03-07T18:22:10.242Z,67.67
2023-03-07T18:24:38.953Z,53.63
2023-03-07T18:27:08.934Z,53.77
2023-03-07T18:29:37.708Z,57.13
2023-03-07T18:32:06.887Z,50.37
2023-03-07T18:34:37.803Z,52.40
2023-03-07T18:37:08.407Z,51.37
2023-03-07T18:39:37.006Z,53.87
2023-03-07T18:42:06.312Z,58.17
2023-03-07T18:44:34.924Z,57.70
2023-03-07T18:47:03.828Z,54.63
2023-03-07T18:49:32.423Z,57.70
2023-03-07T18:52:03.903Z,60.60
2023-03-07T18:54:32.496Z,60.73
2023-03-07T18:57:01.187Z,78.33
2023-03-07T18:59:29.979Z,59.30
2023-03-07T19:02:03.104Z,56.90
2023-03-07T19:04:31.930Z,54.27
2023-03-07T19:07:02.129Z,58.00
2023-03-07T19:09:31.956Z,53.37
2023-03-07T19:12:01.055Z,47.33
2023-03-07T19:14:30.052Z,62.23
2023-03-07T19:16:58.672Z,62.57
2023-03-07T19:19:27.319Z,48.00
2023-03-07T19:21:57.530Z,58.07
2023-03-07T19:24:27.874Z,45.93
2023-03-07T19:26:57.913Z,46.90
2023-03-07T19:29:26.690Z,47.77
2023-03-07T19:31:55.250Z,46.10
2023-03-07T19:34:26.822Z,43.07
2023-03-07T19:36:55.406Z,41.43
2023-03-07T19:39:24.152Z,45.57
2023-03-07T19:41:54.316Z,44.10
2023-03-07T19:44:23.060Z,44.10
2023-03-07T19:46:51.745Z,37.87
2023-03-07T19:49:20.789Z,41.87
2023-03-07T19:51:51.511Z,49.30
2023-03-07T19:54:22.832Z,53.73
2023-03-07T19:56:51.599Z,51.77
2023-03-07T19:59:21.838Z,48.83
2023-03-07T20:01:50.600Z,46.00
2023-03-07T20:04:19.168Z,44.87
2023-03-07T20:06:47.945Z,38.23
2023-03-07T20:09:16.525Z,33.70
2023-03-07T20:11:45.384Z,47.80
2023-03-07T20:14:14.455Z,36.60
2023-03-07T20:16:44.509Z,34.83
2023-03-07T20:19:13.159Z,35.70
2023-03-07T20:21:49.918Z,37.03
2023-03-07T20:24:19.458Z,33.07
2023-03-07T20:26:48.540Z,28.70
2023-03-07T20:29:17.241Z,34.53
2023-03-07T20:31:49.252Z,38.27
2023-03-07T20:34:17.911Z,48.73
2023-03-07T20:36:46.616Z,56.63
2023-03-07T20:39:15.780Z,48.23
2023-03-07T20:41:45.688Z,65.67
2023-03-07T20:44:19.085Z,68.53
2023-03-07T20:46:49.262Z,55.20
2023-03-07T20:49:20.342Z,56.83
2023-03-07T20:51:49.966Z,57.60
2023-03-07T20:54:20.116Z,42.43
2023-03-07T20:56:49.263Z,43.53
2023-03-07T20:59:22.432Z,38.20
2023-03-07T21:01:54.900Z,57.90
2023-03-07T21:04:23.596Z,53.77
2023-03-07T21:06:52.818Z,56.77
2023-03-07T21:09:21.519Z,46.63
2023-03-07T21:11:51.316Z,44.80
2023-03-07T21:14:20.975Z,39.57
2023-03-07T21:16:49.761Z,28.63
2023-03-07T21:19:20.282Z,30.93
2023-03-07T21:21:49.032Z,45.40
2023-03-07T21:24:19.073Z,40.70
2023-03-07T21:26:48.501Z,33.27
2023-03-07T21:29:17.423Z,48.10
2023-03-07T21:31:46.251Z,44.13
2023-03-07T21:34:15.622Z,37.53
2023-03-07T21:36:48.289Z,30.30
2023-03-07T21:39:16.991Z,32.13
2023-03-07T21:41:45.756Z,41.50
2023-03-07T21:44:14.608Z,33.63
2023-03-07T21:46:43.397Z,32.23
2023-03-07T21:49:13.198Z,41.27
2023-03-07T21:51:41.771Z,42.53
2023-03-07T21:54:11.958Z,46.37
2023-03-07T21:56:44.925Z,29.97
2023-03-07T21:59:13.625Z,22.90
2023-03-07T22:01:42.237Z,14.47
2023-03-07T22:04:10.884Z,15.27
2023-03-07T22:06:39.521Z,17.60
2023-03-07T22:09:08.025Z,15.03
2023-03-07T22:11:38.003Z,17.90
2023-03-07T22:14:06.634Z,15.13
2023-03-07T22:16:35.166Z,19.33
2023-03-07T22:19:03.837Z,20.43
2023-03-07T22:21:32.408Z,20.40
2023-03-07T22:24:01.439Z,26.20
2023-03-07T22:26:31.729Z,34.83
2023-03-07T22:29:02.904Z,21.67
2023-03-07T22:31:31.583Z,23.27
2023-03-07T22:34:00.631Z,28.30
2023-03-07T22:36:29.255Z,40.77
2023-03-07T22:38:58.041Z,30.10
2023-03-07T22:41:27.253Z,29.47
2023-03-07T22:43:55.895Z,29.27
2023-03-07T22:46:26.101Z,31.50
2023-03-07T22:48:57.755Z,31.47
2023-03-07T22:51:27.624Z,19.00
2023-03-07T22:53:58.418Z,24.93
2023-03-07T22:56:28.722Z,24.80
2023-03-07T22:58:57.657Z,16.00
2023-03-07T23:01:29.129Z,26.67
2023-03-07T23:04:00.111Z,26.90
2023-03-07T23:06:31.069Z,28.60
2023-03-07T23:09:00.049Z,28.97
2023-03-07T23:11:30.659Z,25.73
2023-03-07T23:13:59.334Z,25.57
2023-03-07T23:16:31.719Z,9.32
2023-03-07T23:19:01.333Z,21.87
2023-03-07T23:21:31.617Z,27.93
2023-03-07T23:24:01.497Z,18.73
2023-03-07T23:26:31.976Z,21.20
2023-03-07T23:29:01.381Z,21.47
2023-03-07T23:31:33.557Z,23.37
2023-03-07T23:34:03.981Z,23.17
2023-03-07T23:36:33.644Z,22.07
2023-03-07T23:39:02.643Z,18.70
2023-03-07T23:41:31.297Z,18.07
2023-03-07T23:44:01.440Z,20.70
2023-03-07T23:46:32.199Z,21.37
2023-03-07T23:49:01.201Z,21.60
2023-03-07T23:51:29.971Z,21.13
2023-03-07T23:53:58.544Z,19.03
2023-03-07T23:56:27.105Z,23.47
2023-03-07T23:58:56.045Z,21.40
